Time;durP1;ratioP1;P1;durP2;ratioP2;P2;SDS_P1;SDS_P2;PMS_P1;PMS_P2;Temp;Humidity;BMP_temperature;BMP_pressure;BME280_temperature;BME280_humidity;BME280_pressure;Samples;Min_cycle;Max_cycle;Signal;HPM_P1;HPM_P2
2022/05/09 00:00:19;;;;;;;;;;;10.90;99.90;;;;;;5006158;28;19936;-72
2022/05/09 00:02:51;;;;;;;;;;;10.90;99.90;;;;;;5008328;28;19936;-73
2022/05/09 00:05:19;;;;;;;;;;;10.80;99.90;;;;;;5003963;28;19926;-72
2022/05/09 00:07:52;;;;;;;;;;;10.80;99.90;;;;;;5004362;28;19926;-72
2022/05/09 00:10:24;;;;;;;;;;;10.80;99.90;;;;;;4980551;28;19926;-72
2022/05/09 00:12:57;;;;;;;;;;;10.80;99.90;;;;;;4983634;28;19929;-72
2022/05/09 00:15:28;;;;;;;;;;;10.70;99.90;;;;;;5011318;28;19996;-73
2022/05/09 00:17:55;;;;;;;;;;;10.70;99.90;;;;;;4988276;28;19925;-72
2022/05/09 00:20:27;;;;;;;;;;;10.70;99.90;;;;;;5000792;28;20134;-72
2022/05/09 00:22:55;;;;;;;;;;;10.70;99.90;;;;;;4988416;28;20064;-72
2022/05/09 00:25:27;;;;;;;;;;;10.70;99.90;;;;;;5007470;28;20294;-72
2022/05/09 00:27:54;;;;;;;;;;;10.60;99.90;;;;;;5004261;28;20020;-72
2022/05/09 00:30:21;;;;;;;;;;;10.60;99.90;;;;;;4982709;28;19972;-72
2022/05/09 00:32:53;;;;;;;;;;;10.60;99.90;;;;;;4989175;28;19925;-72
2022/05/09 00:35:20;;;;;;;;;;;10.60;99.90;;;;;;4985170;28;19929;-72
2022/05/09 00:37:51;;;;;;;;;;;10.60;99.90;;;;;;4989649;28;19925;-73
2022/05/09 00:40:23;;;;;;;;;;;10.50;99.90;;;;;;4999716;28;20296;-73
2022/05/09 00:42:54;;;;;;;;;;;10.60;99.90;;;;;;4986873;28;19952;-72
2022/05/09 00:45:26;;;;;;;;;;;10.50;99.90;;;;;;4990808;28;20293;-72
2022/05/09 00:47:58;;;;;;;;;;;10.50;99.90;;;;;;5002994;28;19926;-73
2022/05/09 00:50:31;;;;;;;;;;;10.40;99.90;;;;;;4989879;28;19925;-72
2022/05/09 00:53:04;;;;;;;;;;;10.40;99.90;;;;;;4982734;28;19940;-72
2022/05/09 00:55:42;;;;;;;;;;;10.40;99.90;;;;;;4982011;28;19969;-73
2022/05/09 00:58:30;;;;;;;;;;;10.30;99.90;;;;;;4992072;28;20396;-72
2022/05/09 01:00:57;;;;;;;;;;;10.40;99.90;;;;;;5001165;28;20444;-72
2022/05/09 01:03:51;;;;;;;;;;;10.30;99.90;;;;;;5007621;28;19926;-71
2022/05/09 01:06:23;;;;;;;;;;;10.30;99.90;;;;;;4976697;28;19977;-72
2022/05/09 01:08:55;;;;;;;;;;;10.40;99.90;;;;;;4999551;28;19926;-72
2022/05/09 01:11:28;;;;;;;;;;;10.30;99.90;;;;;;4984864;28;19933;-72
2022/05/09 01:14:04;;;;;;;;;;;10.30;99.90;;;;;;4991016;28;20405;-72
2022/05/09 01:16:37;;;;;;;;;;;10.30;99.90;;;;;;5003625;28;19933;-72
2022/05/09 01:19:08;;;;;;;;;;;10.30;99.90;;;;;;5002870;28;20002;-72
2022/05/09 01:21:40;;;;;;;;;;;10.30;99.90;;;;;;4991416;28;19926;-72
2022/05/09 01:24:14;;;;;;;;;;;10.30;99.90;;;;;;5007920;28;19933;-72
2022/05/09 01:26:41;;;;;;;;;;;10.20;99.90;;;;;;4985151;28;19937;-73
2022/05/09 01:29:19;;;;;;;;;;;10.30;99.90;;;;;;4990066;28;19925;-72
2022/05/09 01:31:47;;;;;;;;;;;10.30;99.90;;;;;;5003996;28;20302;-73
2022/05/09 01:34:15;;;;;;;;;;;10.30;99.90;;;;;;5004424;28;19936;-72
2022/05/09 01:36:50;;;;;;;;;;;10.30;99.90;;;;;;4986355;28;19930;-72
2022/05/09 01:39:17;;;;;;;;;;;10.40;99.90;;;;;;4992110;28;19926;-72
2022/05/09 01:41:46;;;;;;;;;;;10.30;99.90;;;;;;4985451;28;19948;-72
2022/05/09 01:44:14;;;;;;;;;;;10.30;99.90;;;;;;5003738;28;19932;-73
2022/05/09 01:49:36;;;;;;;;;;;10.40;99.90;;;;;;5002839;28;19933;-72
2022/05/09 01:52:06;;;;;;;;;;;10.40;99.90;;;;;;4987014;28;19930;-72
2022/05/09 01:54:33;;;;;;;;;;;10.40;99.90;;;;;;4987530;28;20012;-72
2022/05/09 01:57:00;;;;;;;;;;;10.40;99.90;;;;;;5013344;28;19929;-72
2022/05/09 01:59:32;;;;;;;;;;;10.40;99.90;;;;;;5005844;28;19932;-72
2022/05/09 02:02:08;;;;;;;;;;;10.40;99.90;;;;;;4989059;28;19925;-72
2022/05/09 02:04:38;;;;;;;;;;;10.40;99.90;;;;;;5004850;28;19929;-72
2022/05/09 02:07:10;;;;;;;;;;;10.40;99.90;;;;;;5003638;28;19925;-73
2022/05/09 02:09:45;;;;;;;;;;;10.40;99.90;;;;;;5007247;28;19935;-72
2022/05/09 02:12:17;;;;;;;;;;;10.40;99.90;;;;;;5001919;28;19926;-72
2022/05/09 02:14:52;;;;;;;;;;;10.40;99.90;;;;;;4986727;28;19930;-72
2022/05/09 02:17:23;;;;;;;;;;;10.40;99.90;;;;;;4994408;28;19936;-72
2022/05/09 02:19:50;;;;;;;;;;;10.40;99.90;;;;;;4985201;28;19937;-72
2022/05/09 02:22:17;;;;;;;;;;;10.40;99.90;;;;;;5009103;28;19960;-72
2022/05/09 02:24:48;;;;;;;;;;;10.40;99.90;;;;;;5002431;28;19930;-72
2022/05/09 02:27:16;;;;;;;;;;;10.40;99.90;;;;;;4996508;28;20020;-72
2022/05/09 02:29:43;;;;;;;;;;;10.40;99.90;;;;;;5001802;28;20305;-72
2022/05/09 02:32:13;;;;;;;;;;;10.40;99.90;;;;;;4984374;28;19961;-72
2022/05/09 02:34:44;;;;;;;;;;;10.30;99.90;;;;;;4982600;28;19925;-72
2022/05/09 02:37:11;;;;;;;;;;;10.30;99.90;;;;;;5006692;28;20000;-72
2022/05/09 02:39:38;;;;;;;;;;;10.30;99.90;;;;;;4979481;28;20441;-73
2022/05/09 02:42:09;;;;;;;;;;;10.20;99.90;;;;;;4982414;28;19957;-72
2022/05/09 02:44:41;;;;;;;;;;;10.20;99.90;;;;;;5010468;28;19963;-72
2022/05/09 02:47:08;;;;;;;;;;;10.20;99.90;;;;;;5004855;28;20374;-72
2022/05/09 02:49:40;;;;;;;;;;;10.10;99.90;;;;;;4983556;28;19964;-73
2022/05/09 02:52:12;;;;;;;;;;;10.10;99.90;;;;;;4982970;28;19930;-73
2022/05/09 02:54:40;;;;;;;;;;;10.10;99.90;;;;;;4989695;28;20025;-72
2022/05/09 02:57:07;;;;;;;;;;;10.10;99.90;;;;;;4991231;28;19925;-73
2022/05/09 02:59:34;;;;;;;;;;;10.00;99.90;;;;;;4992615;28;19929;-72
2022/05/09 03:02:02;;;;;;;;;;;10.00;99.90;;;;;;4987336;28;20403;-72
2022/05/09 03:04:41;;;;;;;;;;;10.00;99.90;;;;;;4983976;28;19930;-71
2022/05/09 03:07:14;;;;;;;;;;;10.00;99.90;;;;;;5004089;28;19929;-73
2022/05/09 03:09:47;;;;;;;;;;;10.00;99.90;;;;;;4984985;28;19926;-72
2022/05/09 03:12:14;;;;;;;;;;;9.90;99.90;;;;;;4983179;28;19926;-72
2022/05/09 03:14:41;;;;;;;;;;;9.80;99.90;;;;;;4972233;28;20279;-72
2022/05/09 03:17:08;;;;;;;;;;;9.80;99.90;;;;;;5007298;28;19932;-72
2022/05/09 03:19:40;;;;;;;;;;;9.80;99.90;;;;;;5004028;28;19929;-73
2022/05/09 03:22:13;;;;;;;;;;;9.70;99.90;;;;;;4985135;28;20329;-72
2022/05/09 03:24:44;;;;;;;;;;;9.70;99.90;;;;;;4990765;28;19926;-72
2022/05/09 03:27:16;;;;;;;;;;;9.70;99.90;;;;;;4994024;28;19930;-72
2022/05/09 03:29:48;;;;;;;;;;;9.70;99.90;;;;;;4980569;28;19926;-72
2022/05/09 03:32:15;;;;;;;;;;;9.70;99.90;;;;;;5001185;28;19933;-73
2022/05/09 03:34:46;;;;;;;;;;;9.60;99.90;;;;;;5008599;28;19932;-72
2022/05/09 03:37:13;;;;;;;;;;;9.60;99.90;;;;;;5002416;28;19929;-72
2022/05/09 03:39:40;;;;;;;;;;;9.60;99.90;;;;;;4985327;28;19936;-72
2022/05/09 03:42:07;;;;;;;;;;;9.60;99.90;;;;;;5003069;28;19926;-72
2022/05/09 03:44:38;;;;;;;;;;;9.60;99.90;;;;;;5001528;28;19929;-72
2022/05/09 03:47:05;;;;;;;;;;;9.60;99.90;;;;;;4986102;28;20058;-72
2022/05/09 03:49:32;;;;;;;;;;;9.60;99.90;;;;;;5001443;28;19968;-72
2022/05/09 03:52:04;;;;;;;;;;;9.50;99.90;;;;;;4986623;28;19926;-72
2022/05/09 03:54:30;;;;;;;;;;;9.40;99.90;;;;;;4987411;28;19926;-73
2022/05/09 03:56:58;;;;;;;;;;;9.40;99.90;;;;;;4981486;28;20412;-72
2022/05/09 03:59:25;;;;;;;;;;;9.40;99.90;;;;;;4978472;28;20314;-72
2022/05/09 04:01:56;;;;;;;;;;;9.40;99.90;;;;;;5003013;28;20036;-72
2022/05/09 04:04:23;;;;;;;;;;;9.40;99.90;;;;;;5007070;28;19925;-73
2022/05/09 04:06:55;;;;;;;;;;;9.40;99.90;;;;;;5000626;28;19926;-71
2022/05/09 04:09:22;;;;;;;;;;;9.40;99.90;;;;;;4997373;28;20367;-71
2022/05/09 04:11:53;;;;;;;;;;;9.40;99.90;;;;;;5005966;28;19930;-71
2022/05/09 04:17:16;;;;;;;;;;;9.40;99.90;;;;;;5005416;28;19925;-72
2022/05/09 04:19:48;;;;;;;;;;;9.40;99.90;;;;;;4989213;28;19937;-72
2022/05/09 04:22:20;;;;;;;;;;;9.30;99.90;;;;;;5000668;28;19926;-72
2022/05/09 04:24:52;;;;;;;;;;;9.30;99.90;;;;;;5002063;28;19932;-71
2022/05/09 04:27:18;;;;;;;;;;;9.20;99.90;;;;;;5000388;28;19933;-72
2022/05/09 04:29:47;;;;;;;;;;;9.20;99.90;;;;;;5002814;28;19930;-72
2022/05/09 04:32:14;;;;;;;;;;;9.20;99.90;;;;;;5002495;28;20024;-72
2022/05/09 04:34:45;;;;;;;;;;;9.20;99.90;;;;;;4986056;28;19932;-72
2022/05/09 04:37:12;;;;;;;;;;;9.20;99.90;;;;;;5008259;28;19930;-72
2022/05/09 04:39:44;;;;;;;;;;;9.20;99.90;;;;;;4997842;28;19925;-72
2022/05/09 04:42:12;;;;;;;;;;;9.20;99.90;;;;;;5000521;28;19926;-72
2022/05/09 04:44:44;;;;;;;;;;;9.20;99.90;;;;;;4985984;28;19932;-72
2022/05/09 04:47:16;;;;;;;;;;;9.30;99.90;;;;;;5004098;28;19930;-72
2022/05/09 04:49:42;;;;;;;;;;;9.30;99.90;;;;;;5007111;28;19932;-72
2022/05/09 04:52:14;;;;;;;;;;;9.30;99.90;;;;;;4984651;28;19926;-72
2022/05/09 04:54:41;;;;;;;;;;;9.20;99.90;;;;;;5001107;28;19926;-72
2022/05/09 04:57:12;;;;;;;;;;;9.20;99.90;;;;;;4976046;28;20016;-72
2022/05/09 04:59:44;;;;;;;;;;;9.10;99.90;;;;;;5004905;28;19936;-72
2022/05/09 05:02:15;;;;;;;;;;;9.20;99.90;;;;;;4987385;28;19933;-72
2022/05/09 05:04:42;;;;;;;;;;;9.10;99.90;;;;;;5005316;28;19933;-71
2022/05/09 05:07:14;;;;;;;;;;;9.10;99.90;;;;;;5007215;28;20286;-72
2022/05/09 05:09:45;;;;;;;;;;;9.10;99.90;;;;;;5004756;28;20017;-72
2022/05/09 05:12:17;;;;;;;;;;;9.10;99.90;;;;;;5008948;28;19936;-72
2022/05/09 05:14:49;;;;;;;;;;;9.10;99.90;;;;;;5004553;28;19929;-71
2022/05/09 05:17:16;;;;;;;;;;;9.10;99.90;;;;;;4982256;28;19929;-72
2022/05/09 05:19:48;;;;;;;;;;;9.10;99.90;;;;;;5010230;28;19925;-72
2022/05/09 05:22:20;;;;;;;;;;;9.10;99.90;;;;;;5000386;28;20350;-72
2022/05/09 05:24:52;;;;;;;;;;;9.20;99.90;;;;;;4997139;28;20028;-72
2022/05/09 05:27:28;;;;;;;;;;;9.20;99.90;;;;;;4991610;28;19926;-72
2022/05/09 05:29:57;;;;;;;;;;;9.30;99.90;;;;;;4982288;28;20028;-72
2022/05/09 05:32:31;;;;;;;;;;;9.40;99.90;;;;;;4996697;28;19932;-72
2022/05/09 05:35:04;;;;;;;;;;;9.40;99.90;;;;;;4996115;28;20330;-72
2022/05/09 05:37:32;;;;;;;;;;;9.50;99.90;;;;;;4993269;28;19926;-72
2022/05/09 05:40:00;;;;;;;;;;;9.50;99.90;;;;;;5008406;28;20411;-72
2022/05/09 05:42:32;;;;;;;;;;;9.60;99.90;;;;;;4993537;28;19929;-72
2022/05/09 05:45:04;;;;;;;;;;;9.60;99.90;;;;;;4992413;28;19999;-72
2022/05/09 05:47:30;;;;;;;;;;;9.70;99.90;;;;;;4986587;28;19925;-72
2022/05/09 05:50:03;;;;;;;;;;;9.70;99.90;;;;;;4991285;28;20390;-72
2022/05/09 05:52:34;;;;;;;;;;;9.80;99.90;;;;;;5007117;28;19930;-72
2022/05/09 05:55:06;;;;;;;;;;;9.90;99.90;;;;;;4993523;28;20394;-72
2022/05/09 05:57:39;;;;;;;;;;;10.00;99.90;;;;;;5010004;28;19929;-72
2022/05/09 06:00:12;;;;;;;;;;;10.00;99.90;;;;;;4994638;28;19925;-72
2022/05/09 06:02:42;;;;;;;;;;;10.10;99.90;;;;;;5010680;28;20599;-72
2022/05/09 06:05:09;;;;;;;;;;;10.20;99.90;;;;;;4986855;28;19933;-72
2022/05/09 06:07:41;;;;;;;;;;;10.30;99.90;;;;;;5007215;28;19933;-71
2022/05/09 06:10:15;;;;;;;;;;;10.30;99.90;;;;;;5008832;28;20623;-72
2022/05/09 06:12:42;;;;;;;;;;;10.40;99.90;;;;;;5003843;28;20407;-72
2022/05/09 06:15:31;;;;;;;;;;;10.50;99.90;;;;;;5000932;28;19929;-72
2022/05/09 06:17:59;;;;;;;;;;;10.60;99.90;;;;;;4987330;28;20020;-72
2022/05/09 06:20:32;;;;;;;;;;;10.80;99.90;;;;;;5009456;28;19933;-72
2022/05/09 06:23:05;;;;;;;;;;;10.90;99.90;;;;;;4992424;28;19933;-72
2022/05/09 06:25:34;;;;;;;;;;;10.90;99.90;;;;;;5006032;28;20025;-72
2022/05/09 06:28:01;;;;;;;;;;;11.00;99.90;;;;;;4997601;28;20016;-72
2022/05/09 06:30:33;;;;;;;;;;;11.10;99.90;;;;;;5011865;28;19925;-72
2022/05/09 06:33:06;;;;;;;;;;;11.20;99.90;;;;;;5009223;28;19937;-72
2022/05/09 06:35:39;;;;;;;;;;;11.30;99.90;;;;;;4992126;28;20011;-72
2022/05/09 06:38:06;;;;;;;;;;;11.40;99.90;;;;;;4992742;28;19925;-72
2022/05/09 06:40:38;;;;;;;;;;;11.50;99.90;;;;;;5008005;28;19947;-72
2022/05/09 06:43:06;;;;;;;;;;;11.60;99.90;;;;;;5009668;28;19929;-72
2022/05/09 06:45:40;;;;;;;;;;;11.70;99.90;;;;;;4987205;28;19934;-72
2022/05/09 06:48:12;;;;;;;;;;;11.80;99.90;;;;;;4994642;28;19925;-72
2022/05/09 06:50:44;;;;;;;;;;;11.90;99.90;;;;;;5002591;28;19973;-72
2022/05/09 06:53:16;;;;;;;;;;;12.00;99.90;;;;;;5000097;28;20293;-72
2022/05/09 06:55:49;;;;;;;;;;;12.00;99.90;;;;;;4997752;28;19925;-72
2022/05/09 06:58:21;;;;;;;;;;;12.10;99.90;;;;;;4992763;28;19959;-72
2022/05/09 07:00:49;;;;;;;;;;;12.20;99.90;;;;;;5006561;28;19933;-72
2022/05/09 07:03:16;;;;;;;;;;;12.30;99.90;;;;;;5008093;28;19962;-72
2022/05/09 07:05:51;;;;;;;;;;;12.50;99.90;;;;;;4994299;28;19929;-72
2022/05/09 07:08:19;;;;;;;;;;;12.60;99.90;;;;;;4999082;28;19957;-72
2022/05/09 07:10:52;;;;;;;;;;;12.70;99.90;;;;;;4983877;28;19926;-72
2022/05/09 07:13:19;;;;;;;;;;;12.80;99.90;;;;;;5006343;28;20270;-72
2022/05/09 07:15:51;;;;;;;;;;;12.90;99.90;;;;;;4973756;28;19944;-72
2022/05/09 07:18:27;;;;;;;;;;;13.00;99.90;;;;;;5006503;28;19936;-72
2022/05/09 07:20:59;;;;;;;;;;;13.20;99.90;;;;;;4992427;28;19944;-72
2022/05/09 07:23:31;;;;;;;;;;;13.40;99.90;;;;;;4988971;28;19926;-72
2022/05/09 07:26:02;;;;;;;;;;;13.50;99.90;;;;;;4994763;28;19926;-72
2022/05/09 07:28:34;;;;;;;;;;;13.60;99.90;;;;;;4990828;28;19933;-72
2022/05/09 07:31:06;;;;;;;;;;;13.70;99.90;;;;;;4978491;28;19930;-72
2022/05/09 07:33:32;;;;;;;;;;;13.80;99.90;;;;;;4985641;28;20044;-73
2022/05/09 07:36:04;;;;;;;;;;;13.90;99.90;;;;;;5010781;28;19932;-72
2022/05/09 07:38:36;;;;;;;;;;;14.00;99.90;;;;;;4992659;28;19935;-71
2022/05/09 07:41:08;;;;;;;;;;;14.20;99.90;;;;;;4991271;28;19936;-72
2022/05/09 07:43:39;;;;;;;;;;;14.40;99.90;;;;;;5005584;28;20516;-71
2022/05/09 07:46:06;;;;;;;;;;;14.50;99.90;;;;;;5006669;28;20449;-72
2022/05/09 07:48:39;;;;;;;;;;;14.60;99.90;;;;;;4993719;28;19930;-72
2022/05/09 07:51:11;;;;;;;;;;;14.80;99.90;;;;;;5008505;28;19929;-72
2022/05/09 07:53:37;;;;;;;;;;;14.90;99.90;;;;;;4976156;28;19930;-73
2022/05/09 07:56:09;;;;;;;;;;;15.00;99.90;;;;;;4992021;28;20416;-72
2022/05/09 07:58:41;;;;;;;;;;;15.10;99.90;;;;;;5004162;28;19929;-72
2022/05/09 08:01:12;;;;;;;;;;;15.20;99.90;;;;;;4993909;28;19932;-72
2022/05/09 08:03:39;;;;;;;;;;;15.40;99.90;;;;;;4993322;28;20160;-73
2022/05/09 08:06:10;;;;;;;;;;;15.60;99.90;;;;;;5009273;28;20290;-72
2022/05/09 08:08:43;;;;;;;;;;;15.70;99.90;;;;;;5011746;28;20416;-72
2022/05/09 08:11:17;;;;;;;;;;;15.80;99.90;;;;;;5002171;28;19932;-72
2022/05/09 08:13:48;;;;;;;;;;;15.90;99.90;;;;;;4982241;28;20031;-73
2022/05/09 08:16:20;;;;;;;;;;;16.10;99.90;;;;;;4988113;28;21240;-73
2022/05/09 08:18:52;;;;;;;;;;;16.20;99.90;;;;;;4980913;28;19965;-72
2022/05/09 08:21:24;;;;;;;;;;;16.40;99.90;;;;;;5008405;28;20313;-73
2022/05/09 08:23:56;;;;;;;;;;;16.50;99.90;;;;;;5001467;28;19925;-73
2022/05/09 08:26:28;;;;;;;;;;;16.60;99.90;;;;;;4987766;28;19933;-73
2022/05/09 08:29:00;;;;;;;;;;;16.70;99.90;;;;;;4990909;28;20015;-72
2022/05/09 08:31:31;;;;;;;;;;;16.80;99.90;;;;;;4988706;28;19926;-73
2022/05/09 08:34:03;;;;;;;;;;;16.80;99.90;;;;;;5006861;28;19936;-72
2022/05/09 08:36:53;;;;;;;;;;;16.90;99.90;;;;;;4971356;28;19929;-72
2022/05/09 08:39:26;;;;;;;;;;;17.00;99.90;;;;;;4995724;28;19937;-73
2022/05/09 08:41:55;;;;;;;;;;;17.10;99.90;;;;;;5000473;28;19932;-72
2022/05/09 08:44:39;;;;;;;;;;;17.20;99.90;;;;;;5006783;28;19929;-73
2022/05/09 08:47:06;;;;;;;;;;;17.30;99.90;;;;;;4997431;28;20290;-73
2022/05/09 08:49:47;;;;;;;;;;;17.50;99.90;;;;;;4993332;28;19926;-72
2022/05/09 08:52:25;;;;;;;;;;;17.60;99.90;;;;;;5010129;28;19925;-72
2022/05/09 08:54:53;;;;;;;;;;;17.60;99.90;;;;;;5008088;28;19932;-72
2022/05/09 08:57:22;;;;;;;;;;;17.70;99.90;;;;;;5010105;28;19929;-73
2022/05/09 08:59:57;;;;;;;;;;;17.70;99.90;;;;;;5008378;28;19932;-72
2022/05/09 09:02:39;;;;;;;;;;;17.80;99.90;;;;;;4990257;28;19938;-73
2022/05/09 09:05:09;;;;;;;;;;;17.90;99.90;;;;;;5008554;28;19929;-73
2022/05/09 09:07:43;;;;;;;;;;;18.00;99.90;;;;;;5006064;28;19969;-72
2022/05/09 09:10:24;;;;;;;;;;;18.20;99.90;;;;;;5013567;28;19925;-72
2022/05/09 09:13:05;;;;;;;;;;;18.30;99.90;;;;;;4993647;28;19949;-72
2022/05/09 09:15:46;;;;;;;;;;;18.40;99.90;;;;;;5006664;28;19936;-73
2022/05/09 09:18:36;;;;;;;;;;;18.50;99.90;;;;;;4993300;28;19930;-73
2022/05/09 09:21:21;;;;;;;;;;;18.70;99.90;;;;;;5000944;28;19933;-72
2022/05/09 09:24:06;;;;;;;;;;;18.80;99.90;;;;;;4992850;28;20338;-72
2022/05/09 09:26:53;;;;;;;;;;;18.80;99.90;;;;;;4975836;28;19930;-72
2022/05/09 09:29:33;;;;;;;;;;;18.90;99.90;;;;;;5011427;28;19932;-73
2022/05/09 09:32:07;;;;;;;;;;;19.00;99.90;;;;;;4992342;28;19926;-72
2022/05/09 09:34:42;;;;;;;;;;;19.10;99.90;;;;;;4988290;28;19932;-72
2022/05/09 09:37:13;;;;;;;;;;;19.30;99.90;;;;;;5008923;28;19929;-72
2022/05/09 09:39:45;;;;;;;;;;;19.30;99.90;;;;;;5007252;28;19925;-72
2022/05/09 09:42:17;;;;;;;;;;;19.30;99.90;;;;;;4991524;28;19930;-72
2022/05/09 09:44:49;;;;;;;;;;;19.30;99.90;;;;;;5010488;28;19933;-73
2022/05/09 09:47:21;;;;;;;;;;;19.40;99.90;;;;;;5012720;28;19933;-73
2022/05/09 09:49:49;;;;;;;;;;;19.40;99.90;;;;;;4983210;28;19929;-72
2022/05/09 09:52:23;;;;;;;;;;;19.40;99.90;;;;;;4994183;28;20429;-72
2022/05/09 09:55:00;;;;;;;;;;;19.60;99.90;;;;;;5007584;28;19925;-72
2022/05/09 09:57:35;;;;;;;;;;;19.70;99.90;;;;;;4993619;28;19926;-72
2022/05/09 10:00:13;;;;;;;;;;;19.90;99.90;;;;;;5005808;28;19933;-72
2022/05/09 10:02:46;;;;;;;;;;;20.10;99.90;;;;;;4977162;28;20341;-72
2022/05/09 10:05:29;;;;;;;;;;;20.10;99.90;;;;;;5003666;28;20489;-72
2022/05/09 10:08:22;;;;;;;;;;;20.10;99.90;;;;;;5006868;28;19925;-72
2022/05/09 10:10:56;;;;;;;;;;;20.10;99.90;;;;;;4994258;28;20299;-72
2022/05/09 10:13:37;;;;;;;;;;;20.10;99.90;;;;;;4993584;28;19925;-72
2022/05/09 10:16:11;;;;;;;;;;;20.20;99.90;;;;;;4987589;28;19930;-73
2022/05/09 10:18:46;;;;;;;;;;;20.40;99.90;;;;;;5010621;28;19929;-72
2022/05/09 10:24:47;;;;;;;;;;;20.40;99.90;;;;;;4991903;28;19926;-73
2022/05/09 10:27:15;;;;;;;;;;;20.40;99.90;;;;;;4994992;28;19936;-72
2022/05/09 10:29:48;;;;;;;;;;;20.40;99.90;;;;;;5005945;28;19929;-72
2022/05/09 10:32:24;;;;;;;;;;;20.50;99.90;;;;;;5001320;28;20537;-72
2022/05/09 10:35:05;;;;;;;;;;;20.50;99.90;;;;;;5007989;28;19926;-72
2022/05/09 10:37:48;;;;;;;;;;;20.40;99.90;;;;;;5011291;28;19948;-72
2022/05/09 10:40:22;;;;;;;;;;;20.60;99.90;;;;;;4996395;28;20398;-73
2022/05/09 10:42:53;;;;;;;;;;;20.70;99.90;;;;;;5006517;28;19926;-72
2022/05/09 10:45:27;;;;;;;;;;;20.90;99.90;;;;;;5018139;28;19948;-73
2022/05/09 10:48:13;;;;;;;;;;;21.00;99.90;;;;;;5007714;28;19926;-72
2022/05/09 10:51:01;;;;;;;;;;;21.20;99.90;;;;;;5006493;28;19925;-73
2022/05/09 10:53:46;;;;;;;;;;;21.20;99.90;;;;;;5008117;28;19929;-72
2022/05/09 10:56:21;;;;;;;;;;;21.10;99.90;;;;;;5003567;28;19929;-73
2022/05/09 10:59:04;;;;;;;;;;;21.00;99.90;;;;;;5006553;28;20000;-73
2022/05/09 11:01:44;;;;;;;;;;;21.00;99.90;;;;;;5006719;28;20014;-72
2022/05/09 11:04:16;;;;;;;;;;;21.10;99.90;;;;;;5004056;28;19937;-72
2022/05/09 11:07:07;;;;;;;;;;;21.20;99.90;;;;;;5019109;28;19925;-72
2022/05/09 11:09:45;;;;;;;;;;;21.30;99.90;;;;;;4996189;28;19937;-72
2022/05/09 11:12:35;;;;;;;;;;;21.50;99.90;;;;;;4981637;28;19933;-72
2022/05/09 11:15:14;;;;;;;;;;;21.60;99.90;;;;;;4993362;28;19929;-72
2022/05/09 11:17:48;;;;;;;;;;;21.70;99.90;;;;;;5000884;28;19952;-72
2022/05/09 11:20:20;;;;;;;;;;;21.80;99.90;;;;;;5001611;28;19929;-72
2022/05/09 11:23:05;;;;;;;;;;;21.80;99.90;;;;;;5001442;28;19932;-72
2022/05/09 11:25:51;;;;;;;;;;;21.90;99.90;;;;;;4985735;28;19926;-72
2022/05/09 11:28:37;;;;;;;;;;;21.90;99.90;;;;;;4998688;28;19929;-72
2022/05/09 11:31:13;;;;;;;;;;;21.80;99.90;;;;;;5000966;28;19933;-72
2022/05/09 11:33:42;;;;;;;;;;;21.90;99.90;;;;;;4999305;28;19937;-73
2022/05/09 11:36:35;;;;;;;;;;;22.00;99.90;;;;;;5000184;28;20019;-72
2022/05/09 11:39:12;;;;;;;;;;;22.10;99.90;;;;;;4999870;28;20282;-72
2022/05/09 11:41:55;;;;;;;;;;;22.10;99.90;;;;;;4999968;28;20587;-72
2022/05/09 11:44:40;;;;;;;;;;;22.10;99.90;;;;;;4996843;28;19930;-72
2022/05/09 11:47:21;;;;;;;;;;;22.00;99.90;;;;;;5002681;28;20389;-72
2022/05/09 11:49:55;;;;;;;;;;;21.80;99.90;;;;;;4982847;28;20570;-72
2022/05/09 11:52:29;;;;;;;;;;;21.80;99.90;;;;;;4984418;28;19933;-72
2022/05/09 11:55:05;;;;;;;;;;;21.80;99.90;;;;;;4986436;28;19925;-72
2022/05/09 11:57:39;;;;;;;;;;;21.80;99.90;;;;;;4992865;28;20024;-72
2022/05/09 12:00:10;;;;;;;;;;;21.70;99.90;;;;;;4999996;28;19954;-72
2022/05/09 12:02:43;;;;;;;;;;;21.80;99.90;;;;;;4998065;28;19929;-72
2022/05/09 12:05:31;;;;;;;;;;;22.00;99.90;;;;;;4979618;28;19930;-72
2022/05/09 12:08:16;;;;;;;;;;;22.20;99.90;;;;;;4999449;28;19930;-72
2022/05/09 12:11:13;;;;;;;;;;;22.40;99.90;;;;;;4995348;28;19930;-72
2022/05/09 12:13:44;;;;;;;;;;;22.50;99.90;;;;;;5003375;28;19932;-72
2022/05/09 12:16:39;;;;;;;;;;;22.70;99.90;;;;;;5007064;28;20390;-72
2022/05/09 12:19:13;;;;;;;;;;;22.60;99.90;;;;;;4998769;28;20016;-72
2022/05/09 12:21:41;;;;;;;;;;;22.40;99.90;;;;;;4984358;28;20027;-72
2022/05/09 12:24:18;;;;;;;;;;;22.30;99.90;;;;;;4997628;28;20503;-72
2022/05/09 12:26:47;;;;;;;;;;;22.30;99.90;;;;;;5002815;28;19937;-72
2022/05/09 12:29:18;;;;;;;;;;;22.40;99.90;;;;;;5008643;28;19929;-72
2022/05/09 12:31:56;;;;;;;;;;;22.70;99.90;;;;;;4999627;28;19934;-72
2022/05/09 12:34:38;;;;;;;;;;;22.80;99.90;;;;;;5005145;28;19930;-72
2022/05/09 12:37:17;;;;;;;;;;;23.00;99.90;;;;;;5004728;28;19956;-72
2022/05/09 12:39:50;;;;;;;;;;;23.10;99.90;;;;;;5004812;28;19955;-72
2022/05/09 12:42:25;;;;;;;;;;;23.10;99.90;;;;;;5010820;28;19930;-72
2022/05/09 12:44:57;;;;;;;;;;;23.10;99.90;;;;;;5013907;28;19949;-72
2022/05/09 12:47:34;;;;;;;;;;;23.00;99.90;;;;;;5003097;28;19926;-72
2022/05/09 12:50:15;;;;;;;;;;;22.80;99.90;;;;;;4999288;28;19930;-72
2022/05/09 12:52:53;;;;;;;;;;;22.60;99.90;;;;;;4999579;28;19929;-72
2022/05/09 12:58:23;;;;;;;;;;;22.40;99.90;;;;;;4997209;28;19929;-72
2022/05/09 13:01:07;;;;;;;;;;;22.60;99.90;;;;;;5001561;28;19926;-72
2022/05/09 13:03:57;;;;;;;;;;;22.90;99.90;;;;;;4995738;28;19933;-72
2022/05/09 13:06:27;;;;;;;;;;;23.30;99.90;;;;;;4997395;28;19936;-72
2022/05/09 13:09:10;;;;;;;;;;;23.50;99.90;;;;;;4972017;28;19933;-72
2022/05/09 13:11:37;;;;;;;;;;;23.70;99.90;;;;;;5002932;28;19932;-72
2022/05/09 13:14:30;;;;;;;;;;;24.00;99.90;;;;;;5001498;28;19933;-72
2022/05/09 13:16:59;;;;;;;;;;;24.20;99.90;;;;;;4970490;28;20284;-72
2022/05/09 13:19:31;;;;;;;;;;;24.40;98.60;;;;;;5006907;28;20671;-72
2022/05/09 13:22:04;;;;;;;;;;;24.40;99.60;;;;;;4993424;28;19925;-72
2022/05/09 13:24:32;;;;;;;;;;;24.40;98.90;;;;;;4994021;28;20837;-72
2022/05/09 13:27:01;;;;;;;;;;;24.20;99.00;;;;;;4993124;28;19936;-72
2022/05/09 13:29:36;;;;;;;;;;;23.90;98.80;;;;;;4995510;28;19929;-72
2022/05/09 13:32:08;;;;;;;;;;;23.60;99.40;;;;;;4991680;28;20403;-72
2022/05/09 13:34:43;;;;;;;;;;;23.20;99.90;;;;;;4990465;28;20052;-72
2022/05/09 13:37:10;;;;;;;;;;;23.00;99.90;;;;;;5010562;28;20703;-72
2022/05/09 13:39:43;;;;;;;;;;;22.80;99.10;;;;;;4991729;28;19930;-72
2022/05/09 13:42:23;;;;;;;;;;;22.80;99.60;;;;;;4991726;28;19925;-72
2022/05/09 13:44:56;;;;;;;;;;;23.10;99.80;;;;;;5009099;28;19925;-72
2022/05/09 13:47:28;;;;;;;;;;;23.50;99.40;;;;;;4993402;28;20428;-72
2022/05/09 13:50:01;;;;;;;;;;;23.80;98.40;;;;;;5004806;28;20412;-72
2022/05/09 13:52:39;;;;;;;;;;;24.00;98.10;;;;;;5011102;28;19929;-72
2022/05/09 13:55:13;;;;;;;;;;;24.30;97.70;;;;;;5008617;28;19937;-72
2022/05/09 13:57:41;;;;;;;;;;;24.60;97.00;;;;;;5009664;28;20032;-72
2022/05/09 14:00:19;;;;;;;;;;;24.80;96.90;;;;;;5009943;28;19929;-73
2022/05/09 14:02:55;;;;;;;;;;;25.10;94.60;;;;;;5009817;28;19925;-72
2022/05/09 14:05:28;;;;;;;;;;;25.20;94.20;;;;;;5009063;28;20004;-72
2022/05/09 14:08:02;;;;;;;;;;;25.30;94.40;;;;;;4990648;28;20023;-72
2022/05/09 14:10:37;;;;;;;;;;;25.30;94.50;;;;;;4989717;28;19932;-72
2022/05/09 14:13:22;;;;;;;;;;;25.40;94.10;;;;;;4993020;28;19929;-73
2022/05/09 14:16:05;;;;;;;;;;;25.40;93.90;;;;;;5009502;28;19925;-73
2022/05/09 14:18:39;;;;;;;;;;;25.60;92.50;;;;;;4983326;28;19960;-72
2022/05/09 14:21:07;;;;;;;;;;;25.80;92.60;;;;;;5006723;28;19925;-72
2022/05/09 14:23:39;;;;;;;;;;;25.90;90.60;;;;;;5008235;28;20305;-72
2022/05/09 14:32:06;;;;;;;;;;;26.40;89.40;;;;;;4988664;28;19940;-73
2022/05/09 14:34:39;;;;;;;;;;;26.80;86.30;;;;;;5015622;28;19977;-72
2022/05/09 14:37:08;;;;;;;;;;;26.90;90.00;;;;;;4992372;28;19933;-72
2022/05/09 14:39:40;;;;;;;;;;;27.10;87.40;;;;;;5012641;28;19926;-72
2022/05/09 14:42:12;;;;;;;;;;;26.80;83.10;;;;;;5019771;28;19940;-73
2022/05/09 14:44:53;;;;;;;;;;;26.60;84.50;;;;;;5021063;28;20020;-72
2022/05/09 14:47:28;;;;;;;;;;;26.70;82.60;;;;;;5005870;28;19988;-72
2022/05/09 14:50:19;;;;;;;;;;;27.00;80.60;;;;;;5007484;28;20346;-72
2022/05/09 14:53:00;;;;;;;;;;;27.10;78.50;;;;;;5009161;28;19926;-73
2022/05/09 14:58:28;;;;;;;;;;;27.60;78.20;;;;;;5005500;28;20609;-72
2022/05/09 15:01:02;;;;;;;;;;;28.00;76.40;;;;;;5009517;28;19933;-72
2022/05/09 15:03:34;;;;;;;;;;;27.90;75.00;;;;;;5008774;28;20012;-72
2022/05/09 15:06:03;;;;;;;;;;;27.90;78.30;;;;;;4993352;28;19929;-72
2022/05/09 15:08:36;;;;;;;;;;;27.60;74.20;;;;;;5013245;28;19984;-73
2022/05/09 15:11:13;;;;;;;;;;;27.00;76.00;;;;;;5008369;28;19960;-73
2022/05/09 15:13:47;;;;;;;;;;;26.70;76.50;;;;;;5006692;28;19926;-73